sensor_id;sensor_type;location;lat;lon;timestamp;P1;durP1;ratioP1;P2;durP2;ratioP2
6791;SDS011;3433;48.730;9.108;2023-04-25T00:01:34;2.80;;;1.73;;
6791;SDS011;3433;48.730;9.108;2023-04-25T00:04:02;2.20;;;2.00;;
6791;SDS011;3433;48.730;9.108;2023-04-25T00:06:30;1.73;;;1.63;;
6791;SDS011;3433;48.730;9.108;2023-04-25T00:08:59;2.00;;;1.77;;
6791;SDS011;3433;48.730;9.108;2023-04-25T00:11:26;2.63;;;2.20;;
6791;SDS011;3433;48.730;9.108;2023-04-25T00:13:54;3.00;;;2.23;;
6791;SDS011;3433;48.730;9.108;2023-04-25T00:16:22;1.73;;;1.63;;
6791;SDS011;3433;48.730;9.108;2023-04-25T00:18:49;1.80;;;1.70;;
6791;SDS011;3433;48.730;9.108;2023-04-25T00:21:19;2.37;;;1.90;;
6791;SDS011;3433;48.730;9.108;2023-04-25T00:23:46;2.90;;;2.70;;
6791;SDS011;3433;48.730;9.108;2023-04-25T00:26:14;2.77;;;2.30;;
6791;SDS011;3433;48.730;9.108;2023-04-25T00:28:41;2.80;;;2.60;;
6791;SDS011;3433;48.730;9.108;2023-04-25T00:31:08;5.00;;;2.53;;
6791;SDS011;3433;48.730;9.108;2023-04-25T00:33:35;2.87;;;2.17;;
6791;SDS011;3433;48.730;9.108;2023-04-25T00:36:02;3.87;;;2.30;;
6791;SDS011;3433;48.730;9.108;2023-04-25T00:38:30;3.10;;;2.10;;
6791;SDS011;3433;48.730;9.108;2023-04-25T00:40:57;2.33;;;2.23;;
6791;SDS011;3433;48.730;9.108;2023-04-25T00:43:25;3.40;;;2.47;;
6791;SDS011;3433;48.730;9.108;2023-04-25T00:45:53;4.50;;;2.87;;
6791;SDS011;3433;48.730;9.108;2023-04-25T00:48:22;2.13;;;1.83;;
6791;SDS011;3433;48.730;9.108;2023-04-25T00:50:51;2.40;;;2.10;;
6791;SDS011;3433;48.730;9.108;2023-04-25T00:53:19;2.93;;;1.87;;
6791;SDS011;3433;48.730;9.108;2023-04-25T00:55:46;2.83;;;2.50;;
6791;SDS011;3433;48.730;9.108;2023-04-25T00:58:15;3.40;;;3.03;;
6791;SDS011;3433;48.730;9.108;2023-04-25T01:00:45;3.47;;;2.70;;
6791;SDS011;3433;48.730;9.108;2023-04-25T01:03:12;3.73;;;2.40;;
6791;SDS011;3433;48.730;9.108;2023-04-25T01:05:41;2.43;;;2.30;;
6791;SDS011;3433;48.730;9.108;2023-04-25T01:08:08;3.50;;;2.30;;
6791;SDS011;3433;48.730;9.108;2023-04-25T01:10:36;2.23;;;2.03;;
6791;SDS011;3433;48.730;9.108;2023-04-25T01:13:03;4.70;;;2.37;;
6791;SDS011;3433;48.730;9.108;2023-04-25T01:15:30;3.63;;;2.40;;
6791;SDS011;3433;48.730;9.108;2023-04-25T01:17:58;4.23;;;2.30;;
6791;SDS011;3433;48.730;9.108;2023-04-25T01:20:26;3.00;;;2.50;;
6791;SDS011;3433;48.730;9.108;2023-04-25T01:22:56;2.83;;;2.50;;
6791;SDS011;3433;48.730;9.108;2023-04-25T01:25:23;2.80;;;2.47;;
6791;SDS011;3433;48.730;9.108;2023-04-25T01:27:50;3.53;;;2.60;;
6791;SDS011;3433;48.730;9.108;2023-04-25T01:30:18;5.93;;;2.73;;
6791;SDS011;3433;48.730;9.108;2023-04-25T01:32:45;2.77;;;2.53;;
6791;SDS011;3433;48.730;9.108;2023-04-25T01:35:13;2.83;;;2.63;;
6791;SDS011;3433;48.730;9.108;2023-04-25T01:37:40;2.83;;;2.50;;
6791;SDS011;3433;48.730;9.108;2023-04-25T01:40:09;3.10;;;2.40;;
6791;SDS011;3433;48.730;9.108;2023-04-25T01:42:42;3.13;;;2.50;;
6791;SDS011;3433;48.730;9.108;2023-04-25T01:45:10;3.30;;;2.60;;
6791;SDS011;3433;48.730;9.108;2023-04-25T01:47:38;4.03;;;2.40;;
6791;SDS011;3433;48.730;9.108;2023-04-25T01:50:07;3.80;;;2.37;;
6791;SDS011;3433;48.730;9.108;2023-04-25T01:52:34;2.80;;;2.53;;
6791;SDS011;3433;48.730;9.108;2023-04-25T01:55:01;2.70;;;2.50;;
6791;SDS011;3433;48.730;9.108;2023-04-25T01:57:30;3.67;;;2.47;;
6791;SDS011;3433;48.730;9.108;2023-04-25T01:59:58;3.50;;;2.47;;
6791;SDS011;3433;48.730;9.108;2023-04-25T02:02:26;5.10;;;2.37;;
6791;SDS011;3433;48.730;9.108;2023-04-25T02:04:55;1.93;;;1.83;;
6791;SDS011;3433;48.730;9.108;2023-04-25T02:07:22;2.40;;;2.20;;
6791;SDS011;3433;48.730;9.108;2023-04-25T02:09:49;2.43;;;2.30;;
6791;SDS011;3433;48.730;9.108;2023-04-25T02:12:16;4.47;;;2.37;;
6791;SDS011;3433;48.730;9.108;2023-04-25T02:14:45;5.17;;;2.33;;
6791;SDS011;3433;48.730;9.108;2023-04-25T02:17:12;3.43;;;2.23;;
6791;SDS011;3433;48.730;9.108;2023-04-25T02:19:39;3.07;;;2.23;;
6791;SDS011;3433;48.730;9.108;2023-04-25T02:22:06;2.93;;;2.33;;
6791;SDS011;3433;48.730;9.108;2023-04-25T02:24:33;3.20;;;2.00;;
6791;SDS011;3433;48.730;9.108;2023-04-25T02:27:00;2.50;;;2.10;;
6791;SDS011;3433;48.730;9.108;2023-04-25T02:29:27;2.40;;;1.93;;
6791;SDS011;3433;48.730;9.108;2023-04-25T02:31:55;2.30;;;2.10;;
6791;SDS011;3433;48.730;9.108;2023-04-25T02:34:22;2.37;;;2.00;;
6791;SDS011;3433;48.730;9.108;2023-04-25T02:36:49;2.30;;;2.10;;
6791;SDS011;3433;48.730;9.108;2023-04-25T02:39:16;3.63;;;2.17;;
6791;SDS011;3433;48.730;9.108;2023-04-25T02:41:46;2.10;;;1.90;;
6791;SDS011;3433;48.730;9.108;2023-04-25T02:44:13;2.23;;;2.03;;
6791;SDS011;3433;48.730;9.108;2023-04-25T02:46:42;6.60;;;2.10;;
6791;SDS011;3433;48.730;9.108;2023-04-25T02:49:11;2.67;;;2.40;;
6791;SDS011;3433;48.730;9.108;2023-04-25T02:51:37;3.23;;;2.37;;
6791;SDS011;3433;48.730;9.108;2023-04-25T02:54:04;2.50;;;2.30;;
6791;SDS011;3433;48.730;9.108;2023-04-25T02:56:32;3.03;;;2.40;;
6791;SDS011;3433;48.730;9.108;2023-04-25T02:59:00;6.30;;;3.10;;
6791;SDS011;3433;48.730;9.108;2023-04-25T03:01:27;3.10;;;1.90;;
6791;SDS011;3433;48.730;9.108;2023-04-25T03:03:56;2.30;;;2.10;;
6791;SDS011;3433;48.730;9.108;2023-04-25T03:06:25;2.23;;;2.03;;
6791;SDS011;3433;48.730;9.108;2023-04-25T03:08:56;3.30;;;2.67;;
6791;SDS011;3433;48.730;9.108;2023-04-25T03:11:25;3.67;;;2.60;;
6791;SDS011;3433;48.730;9.108;2023-04-25T03:13:52;4.27;;;2.33;;
6791;SDS011;3433;48.730;9.108;2023-04-25T03:16:19;2.60;;;2.03;;
6791;SDS011;3433;48.730;9.108;2023-04-25T03:18:47;3.80;;;2.20;;
6791;SDS011;3433;48.730;9.108;2023-04-25T03:21:15;4.27;;;2.33;;
6791;SDS011;3433;48.730;9.108;2023-04-25T03:23:44;2.10;;;1.90;;
6791;SDS011;3433;48.730;9.108;2023-04-25T03:26:10;2.70;;;2.47;;
6791;SDS011;3433;48.730;9.108;2023-04-25T03:28:37;3.13;;;2.40;;
6791;SDS011;3433;48.730;9.108;2023-04-25T03:31:05;2.90;;;2.60;;
6791;SDS011;3433;48.730;9.108;2023-04-25T03:33:32;2.20;;;1.97;;
6791;SDS011;3433;48.730;9.108;2023-04-25T03:35:59;6.07;;;2.93;;
6791;SDS011;3433;48.730;9.108;2023-04-25T03:38:27;3.23;;;2.30;;
6791;SDS011;3433;48.730;9.108;2023-04-25T03:40:55;2.80;;;2.60;;
6791;SDS011;3433;48.730;9.108;2023-04-25T03:43:25;3.60;;;2.53;;
6791;SDS011;3433;48.730;9.108;2023-04-25T03:45:52;2.90;;;2.40;;
6791;SDS011;3433;48.730;9.108;2023-04-25T03:48:19;2.63;;;2.23;;
6791;SDS011;3433;48.730;9.108;2023-04-25T03:50:49;2.50;;;2.30;;
6791;SDS011;3433;48.730;9.108;2023-04-25T03:53:20;3.57;;;2.70;;
6791;SDS011;3433;48.730;9.108;2023-04-25T03:55:47;4.53;;;3.63;;
6791;SDS011;3433;48.730;9.108;2023-04-25T03:58:16;4.13;;;2.80;;
6791;SDS011;3433;48.730;9.108;2023-04-25T04:00:43;3.43;;;2.50;;
6791;SDS011;3433;48.730;9.108;2023-04-25T04:03:11;3.10;;;2.80;;
6791;SDS011;3433;48.730;9.108;2023-04-25T04:05:38;4.43;;;2.97;;
6791;SDS011;3433;48.730;9.108;2023-04-25T04:08:05;4.43;;;3.13;;
6791;SDS011;3433;48.730;9.108;2023-04-25T04:10:32;7.67;;;3.57;;
6791;SDS011;3433;48.730;9.108;2023-04-25T04:12:59;3.57;;;3.13;;
6791;SDS011;3433;48.730;9.108;2023-04-25T04:15:28;4.60;;;2.63;;
6791;SDS011;3433;48.730;9.108;2023-04-25T04:17:58;6.50;;;3.20;;
6791;SDS011;3433;48.730;9.108;2023-04-25T04:20:27;5.10;;;3.07;;
6791;SDS011;3433;48.730;9.108;2023-04-25T04:22:55;4.50;;;2.93;;
6791;SDS011;3433;48.730;9.108;2023-04-25T04:25:22;3.73;;;2.80;;
6791;SDS011;3433;48.730;9.108;2023-04-25T04:27:52;2.90;;;2.53;;
6791;SDS011;3433;48.730;9.108;2023-04-25T04:30:22;3.03;;;2.73;;
6791;SDS011;3433;48.730;9.108;2023-04-25T04:32:51;3.60;;;3.20;;
6791;SDS011;3433;48.730;9.108;2023-04-25T04:35:18;4.10;;;3.00;;
6791;SDS011;3433;48.730;9.108;2023-04-25T04:37:45;3.43;;;3.13;;
6791;SDS011;3433;48.730;9.108;2023-04-25T04:40:13;4.20;;;3.30;;
6791;SDS011;3433;48.730;9.108;2023-04-25T04:42:41;6.73;;;3.33;;
6791;SDS011;3433;48.730;9.108;2023-04-25T04:45:09;3.50;;;3.20;;
6791;SDS011;3433;48.730;9.108;2023-04-25T04:47:37;4.03;;;3.33;;
6791;SDS011;3433;48.730;9.108;2023-04-25T04:50:06;3.80;;;3.40;;
6791;SDS011;3433;48.730;9.108;2023-04-25T04:52:34;6.80;;;3.27;;
6791;SDS011;3433;48.730;9.108;2023-04-25T04:55:04;7.17;;;3.60;;
6791;SDS011;3433;48.730;9.108;2023-04-25T04:57:31;4.47;;;3.60;;
6791;SDS011;3433;48.730;9.108;2023-04-25T05:00:02;5.60;;;3.50;;
6791;SDS011;3433;48.730;9.108;2023-04-25T05:02:31;4.50;;;3.80;;
6791;SDS011;3433;48.730;9.108;2023-04-25T05:04:58;4.67;;;3.50;;
6791;SDS011;3433;48.730;9.108;2023-04-25T05:07:27;3.97;;;3.30;;
6791;SDS011;3433;48.730;9.108;2023-04-25T05:09:53;7.70;;;5.43;;
6791;SDS011;3433;48.730;9.108;2023-04-25T05:12:20;9.40;;;7.10;;
6791;SDS011;3433;48.730;9.108;2023-04-25T05:14:51;7.37;;;5.73;;
6791;SDS011;3433;48.730;9.108;2023-04-25T05:17:18;4.77;;;4.00;;
6791;SDS011;3433;48.730;9.108;2023-04-25T05:19:45;5.87;;;3.63;;
6791;SDS011;3433;48.730;9.108;2023-04-25T05:22:12;4.10;;;3.30;;
6791;SDS011;3433;48.730;9.108;2023-04-25T05:24:40;6.33;;;3.73;;
6791;SDS011;3433;48.730;9.108;2023-04-25T05:27:07;4.83;;;3.47;;
6791;SDS011;3433;48.730;9.108;2023-04-25T05:29:34;5.20;;;3.60;;
6791;SDS011;3433;48.730;9.108;2023-04-25T05:32:01;3.53;;;3.10;;
6791;SDS011;3433;48.730;9.108;2023-04-25T05:34:28;4.23;;;3.27;;
6791;SDS011;3433;48.730;9.108;2023-04-25T05:36:58;4.67;;;3.90;;
6791;SDS011;3433;48.730;9.108;2023-04-25T05:39:25;4.07;;;3.67;;
6791;SDS011;3433;48.730;9.108;2023-04-25T05:41:53;5.20;;;3.70;;
6791;SDS011;3433;48.730;9.108;2023-04-25T05:44:20;6.03;;;4.07;;
6791;SDS011;3433;48.730;9.108;2023-04-25T05:46:47;4.50;;;4.10;;
6791;SDS011;3433;48.730;9.108;2023-04-25T05:49:14;6.77;;;4.50;;
6791;SDS011;3433;48.730;9.108;2023-04-25T05:51:41;4.53;;;3.87;;
6791;SDS011;3433;48.730;9.108;2023-04-25T05:54:08;6.87;;;4.67;;
6791;SDS011;3433;48.730;9.108;2023-04-25T05:56:35;5.77;;;4.60;;
6791;SDS011;3433;48.730;9.108;2023-04-25T05:59:04;8.20;;;4.57;;
6791;SDS011;3433;48.730;9.108;2023-04-25T06:01:31;5.90;;;4.70;;
6791;SDS011;3433;48.730;9.108;2023-04-25T06:03:57;7.00;;;5.50;;
6791;SDS011;3433;48.730;9.108;2023-04-25T06:06:24;8.13;;;5.20;;
6791;SDS011;3433;48.730;9.108;2023-04-25T06:08:51;10.63;;;5.87;;
6791;SDS011;3433;48.730;9.108;2023-04-25T06:11:19;9.60;;;5.90;;
6791;SDS011;3433;48.730;9.108;2023-04-25T06:13:46;7.57;;;4.93;;
6791;SDS011;3433;48.730;9.108;2023-04-25T06:16:14;5.97;;;4.30;;
6791;SDS011;3433;48.730;9.108;2023-04-25T06:18:41;9.47;;;4.43;;
6791;SDS011;3433;48.730;9.108;2023-04-25T06:21:08;9.10;;;5.27;;
6791;SDS011;3433;48.730;9.108;2023-04-25T06:23:35;5.57;;;4.23;;
6791;SDS011;3433;48.730;9.108;2023-04-25T06:26:02;5.10;;;3.87;;
6791;SDS011;3433;48.730;9.108;2023-04-25T06:28:29;5.43;;;4.00;;
6791;SDS011;3433;48.730;9.108;2023-04-25T06:30:58;5.83;;;3.90;;
6791;SDS011;3433;48.730;9.108;2023-04-25T06:34:09;5.23;;;4.47;;
6791;SDS011;3433;48.730;9.108;2023-04-25T06:36:36;6.27;;;4.20;;
6791;SDS011;3433;48.730;9.108;2023-04-25T06:39:03;8.53;;;4.73;;
6791;SDS011;3433;48.730;9.108;2023-04-25T06:41:30;6.20;;;4.73;;
6791;SDS011;3433;48.730;9.108;2023-04-25T06:43:56;6.40;;;4.70;;
6791;SDS011;3433;48.730;9.108;2023-04-25T06:46:23;6.13;;;4.30;;
6791;SDS011;3433;48.730;9.108;2023-04-25T06:48:51;5.83;;;4.73;;
6791;SDS011;3433;48.730;9.108;2023-04-25T06:51:19;4.77;;;4.37;;
6791;SDS011;3433;48.730;9.108;2023-04-25T06:53:46;5.87;;;4.50;;
6791;SDS011;3433;48.730;9.108;2023-04-25T06:56:13;5.90;;;4.70;;
6791;SDS011;3433;48.730;9.108;2023-04-25T06:58:41;4.40;;;4.00;;
6791;SDS011;3433;48.730;9.108;2023-04-25T07:01:08;5.03;;;3.90;;
6791;SDS011;3433;48.730;9.108;2023-04-25T07:03:35;4.97;;;3.87;;
6791;SDS011;3433;48.730;9.108;2023-04-25T07:06:03;4.93;;;4.30;;
6791;SDS011;3433;48.730;9.108;2023-04-25T07:08:31;6.90;;;5.23;;
6791;SDS011;3433;48.730;9.108;2023-04-25T07:11:00;6.63;;;4.53;;
6791;SDS011;3433;48.730;9.108;2023-04-25T07:13:27;8.43;;;5.13;;
6791;SDS011;3433;48.730;9.108;2023-04-25T07:15:57;8.53;;;5.03;;
6791;SDS011;3433;48.730;9.108;2023-04-25T07:18:23;7.47;;;4.87;;
6791;SDS011;3433;48.730;9.108;2023-04-25T07:20:51;7.77;;;5.53;;
6791;SDS011;3433;48.730;9.108;2023-04-25T07:23:17;9.23;;;6.40;;
6791;SDS011;3433;48.730;9.108;2023-04-25T07:25:46;7.30;;;4.90;;
6791;SDS011;3433;48.730;9.108;2023-04-25T07:28:13;6.30;;;4.73;;
6791;SDS011;3433;48.730;9.108;2023-04-25T07:30:40;6.53;;;4.37;;
6791;SDS011;3433;48.730;9.108;2023-04-25T07:33:07;6.33;;;5.47;;
6791;SDS011;3433;48.730;9.108;2023-04-25T07:35:34;8.27;;;4.73;;
6791;SDS011;3433;48.730;9.108;2023-04-25T07:38:01;6.50;;;4.93;;
6791;SDS011;3433;48.730;9.108;2023-04-25T07:40:28;7.10;;;5.33;;
6791;SDS011;3433;48.730;9.108;2023-04-25T07:42:59;8.10;;;5.47;;
6791;SDS011;3433;48.730;9.108;2023-04-25T07:45:26;5.40;;;4.60;;
6791;SDS011;3433;48.730;9.108;2023-04-25T07:47:56;5.70;;;5.10;;
6791;SDS011;3433;48.730;9.108;2023-04-25T07:50:23;7.80;;;5.90;;
6791;SDS011;3433;48.730;9.108;2023-04-25T07:52:50;8.57;;;5.80;;
6791;SDS011;3433;48.730;9.108;2023-04-25T07:55:17;5.60;;;5.10;;
6791;SDS011;3433;48.730;9.108;2023-04-25T07:57:43;5.60;;;4.60;;
6791;SDS011;3433;48.730;9.108;2023-04-25T08:00:12;7.13;;;5.30;;
6791;SDS011;3433;48.730;9.108;2023-04-25T08:02:40;9.60;;;5.60;;
6791;SDS011;3433;48.730;9.108;2023-04-25T08:05:07;11.13;;;5.80;;
6791;SDS011;3433;48.730;9.108;2023-04-25T08:07:36;8.80;;;6.00;;
6791;SDS011;3433;48.730;9.108;2023-04-25T08:10:04;7.67;;;6.13;;
6791;SDS011;3433;48.730;9.108;2023-04-25T08:12:31;7.97;;;5.03;;
6791;SDS011;3433;48.730;9.108;2023-04-25T08:14:58;10.43;;;5.20;;
6791;SDS011;3433;48.730;9.108;2023-04-25T08:17:26;8.73;;;5.47;;
6791;SDS011;3433;48.730;9.108;2023-04-25T08:19:56;13.17;;;7.80;;
6791;SDS011;3433;48.730;9.108;2023-04-25T08:22:23;11.73;;;7.07;;
6791;SDS011;3433;48.730;9.108;2023-04-25T08:24:50;10.50;;;6.87;;
6791;SDS011;3433;48.730;9.108;2023-04-25T08:27:17;11.90;;;6.67;;
6791;SDS011;3433;48.730;9.108;2023-04-25T08:29:45;8.23;;;5.87;;
6791;SDS011;3433;48.730;9.108;2023-04-25T08:32:12;9.70;;;6.00;;
6791;SDS011;3433;48.730;9.108;2023-04-25T08:34:41;11.63;;;5.70;;
6791;SDS011;3433;48.730;9.108;2023-04-25T08:37:09;8.23;;;6.47;;
6791;SDS011;3433;48.730;9.108;2023-04-25T08:39:36;9.37;;;6.10;;
6791;SDS011;3433;48.730;9.108;2023-04-25T08:42:05;7.53;;;5.50;;
6791;SDS011;3433;48.730;9.108;2023-04-25T08:44:33;8.83;;;5.93;;
6791;SDS011;3433;48.730;9.108;2023-04-25T08:47:01;7.20;;;5.27;;
6791;SDS011;3433;48.730;9.108;2023-04-25T08:49:29;7.47;;;6.07;;
6791;SDS011;3433;48.730;9.108;2023-04-25T08:51:59;12.00;;;8.40;;
6791;SDS011;3433;48.730;9.108;2023-04-25T08:54:31;8.30;;;5.50;;
6791;SDS011;3433;48.730;9.108;2023-04-25T08:57:00;8.40;;;6.37;;
6791;SDS011;3433;48.730;9.108;2023-04-25T08:59:28;7.00;;;5.03;;
6791;SDS011;3433;48.730;9.108;2023-04-25T09:01:56;5.53;;;4.80;;
6791;SDS011;3433;48.730;9.108;2023-04-25T09:04:23;6.13;;;5.03;;
6791;SDS011;3433;48.730;9.108;2023-04-25T09:06:51;7.27;;;5.13;;
6791;SDS011;3433;48.730;9.108;2023-04-25T09:09:19;6.00;;;4.53;;
6791;SDS011;3433;48.730;9.108;2023-04-25T09:11:46;5.90;;;5.07;;
6791;SDS011;3433;48.730;9.108;2023-04-25T09:14:14;6.67;;;4.83;;
6791;SDS011;3433;48.730;9.108;2023-04-25T09:16:57;6.87;;;4.90;;
6791;SDS011;3433;48.730;9.108;2023-04-25T09:19:29;11.10;;;6.20;;
6791;SDS011;3433;48.730;9.108;2023-04-25T09:21:58;8.67;;;5.87;;
6791;SDS011;3433;48.730;9.108;2023-04-25T09:24:31;9.87;;;5.00;;
6791;SDS011;3433;48.730;9.108;2023-04-25T09:26:59;5.00;;;4.17;;
6791;SDS011;3433;48.730;9.108;2023-04-25T09:29:29;8.53;;;5.30;;
6791;SDS011;3433;48.730;9.108;2023-04-25T09:32:16;5.60;;;4.60;;
6791;SDS011;3433;48.730;9.108;2023-04-25T09:34:44;7.43;;;4.23;;
6791;SDS011;3433;48.730;9.108;2023-04-25T09:40:05;6.47;;;4.10;;
6791;SDS011;3433;48.730;9.108;2023-04-25T09:42:33;4.30;;;3.90;;
6791;SDS011;3433;48.730;9.108;2023-04-25T09:45:00;7.00;;;4.17;;
6791;SDS011;3433;48.730;9.108;2023-04-25T09:47:27;5.17;;;4.67;;
6791;SDS011;3433;48.730;9.108;2023-04-25T09:49:54;6.53;;;4.77;;
6791;SDS011;3433;48.730;9.108;2023-04-25T09:52:22;6.17;;;4.83;;
6791;SDS011;3433;48.730;9.108;2023-04-25T09:54:50;5.33;;;4.40;;
6791;SDS011;3433;48.730;9.108;2023-04-25T09:57:19;5.00;;;3.80;;
6791;SDS011;3433;48.730;9.108;2023-04-25T09:59:47;7.80;;;3.67;;
6791;SDS011;3433;48.730;9.108;2023-04-25T10:02:17;4.23;;;3.30;;
6791;SDS011;3433;48.730;9.108;2023-04-25T10:04:47;2.93;;;2.63;;
6791;SDS011;3433;48.730;9.108;2023-04-25T10:07:16;8.30;;;3.60;;
6791;SDS011;3433;48.730;9.108;2023-04-25T10:09:46;2.70;;;1.97;;
6791;SDS011;3433;48.730;9.108;2023-04-25T10:12:14;8.40;;;1.90;;
6791;SDS011;3433;48.730;9.108;2023-04-25T10:14:44;2.40;;;1.70;;
6791;SDS011;3433;48.730;9.108;2023-04-25T10:17:11;3.73;;;1.73;;
6791;SDS011;3433;48.730;9.108;2023-04-25T10:19:40;1.40;;;1.30;;
6791;SDS011;3433;48.730;9.108;2023-04-25T10:22:08;1.93;;;1.60;;
6791;SDS011;3433;48.730;9.108;2023-04-25T10:24:40;3.00;;;1.50;;
6791;SDS011;3433;48.730;9.108;2023-04-25T10:27:08;2.93;;;2.07;;
6791;SDS011;3433;48.730;9.108;2023-04-25T10:29:36;1.67;;;1.57;;
6791;SDS011;3433;48.730;9.108;2023-04-25T10:32:05;1.47;;;1.37;;
6791;SDS011;3433;48.730;9.108;2023-04-25T10:34:38;2.40;;;1.60;;
6791;SDS011;3433;48.730;9.108;2023-04-25T10:37:08;1.30;;;1.20;;
6791;SDS011;3433;48.730;9.108;2023-04-25T10:39:35;1.20;;;1.10;;
6791;SDS011;3433;48.730;9.108;2023-04-25T10:42:05;2.27;;;1.37;;
6791;SDS011;3433;48.730;9.108;2023-04-25T10:44:33;2.23;;;1.40;;
6791;SDS011;3433;48.730;9.108;2023-04-25T10:47:00;2.33;;;1.70;;
6791;SDS011;3433;48.730;9.108;2023-04-25T10:49:30;1.73;;;1.30;;
6791;SDS011;3433;48.730;9.108;2023-04-25T10:52:24;1.03;;;1.00;;
6791;SDS011;3433;48.730;9.108;2023-04-25T10:54:53;1.30;;;1.20;;
6791;SDS011;3433;48.730;9.108;2023-04-25T10:57:31;2.70;;;0.90;;
6791;SDS011;3433;48.730;9.108;2023-04-25T11:00:05;2.30;;;1.13;;
6791;SDS011;3433;48.730;9.108;2023-04-25T11:02:37;1.37;;;1.27;;
6791;SDS011;3433;48.730;9.108;2023-04-25T11:05:11;1.63;;;1.00;;
6791;SDS011;3433;48.730;9.108;2023-04-25T11:07:49;1.77;;;1.67;;
6791;SDS011;3433;48.730;9.108;2023-04-25T11:10:17;2.27;;;1.90;;
6791;SDS011;3433;48.730;9.108;2023-04-25T11:12:45;2.37;;;2.20;;
6791;SDS011;3433;48.730;9.108;2023-04-25T11:15:12;4.73;;;3.77;;
6791;SDS011;3433;48.730;9.108;2023-04-25T11:17:40;14.30;;;8.00;;
6791;SDS011;3433;48.730;9.108;2023-04-25T11:20:08;10.37;;;5.90;;
6791;SDS011;3433;48.730;9.108;2023-04-25T11:22:38;11.77;;;6.17;;
6791;SDS011;3433;48.730;9.108;2023-04-25T11:25:07;4.90;;;3.47;;
6791;SDS011;3433;48.730;9.108;2023-04-25T11:27:37;4.43;;;3.67;;
6791;SDS011;3433;48.730;9.108;2023-04-25T11:30:12;4.00;;;3.60;;
6791;SDS011;3433;48.730;9.108;2023-04-25T11:32:41;4.83;;;3.57;;
6791;SDS011;3433;48.730;9.108;2023-04-25T11:35:08;2.17;;;2.00;;
6791;SDS011;3433;48.730;9.108;2023-04-25T11:37:35;2.60;;;1.90;;
6791;SDS011;3433;48.730;9.108;2023-04-25T11:40:04;2.77;;;2.50;;
6791;SDS011;3433;48.730;9.108;2023-04-25T11:42:33;4.60;;;2.80;;
6791;SDS011;3433;48.730;9.108;2023-04-25T11:45:00;4.07;;;3.10;;
6791;SDS011;3433;48.730;9.108;2023-04-25T11:47:29;3.60;;;2.40;;
6791;SDS011;3433;48.730;9.108;2023-04-25T11:49:57;4.80;;;3.33;;
6791;SDS011;3433;48.730;9.108;2023-04-25T11:52:25;2.77;;;2.37;;
6791;SDS011;3433;48.730;9.108;2023-04-25T11:55:05;3.30;;;2.90;;
6791;SDS011;3433;48.730;9.108;2023-04-25T11:57:33;2.70;;;2.50;;
6791;SDS011;3433;48.730;9.108;2023-04-25T12:00:07;4.23;;;3.73;;
6791;SDS011;3433;48.730;9.108;2023-04-25T12:02:36;3.80;;;3.50;;
6791;SDS011;3433;48.730;9.108;2023-04-25T12:05:05;4.60;;;3.97;;
6791;SDS011;3433;48.730;9.108;2023-04-25T12:07:33;6.30;;;4.10;;
6791;SDS011;3433;48.730;9.108;2023-04-25T12:10:05;4.30;;;3.90;;
6791;SDS011;3433;48.730;9.108;2023-04-25T12:12:33;4.93;;;3.80;;
6791;SDS011;3433;48.730;9.108;2023-04-25T12:15:10;4.83;;;3.73;;
6791;SDS011;3433;48.730;9.108;2023-04-25T12:17:40;4.47;;;3.77;;
6791;SDS011;3433;48.730;9.108;2023-04-25T12:20:09;4.37;;;3.97;;
6791;SDS011;3433;48.730;9.108;2023-04-25T12:22:37;4.07;;;3.73;;
6791;SDS011;3433;48.730;9.108;2023-04-25T12:25:05;4.70;;;3.83;;
6791;SDS011;3433;48.730;9.108;2023-04-25T12:27:32;6.53;;;4.97;;
6791;SDS011;3433;48.730;9.108;2023-04-25T12:30:01;6.17;;;4.83;;
6791;SDS011;3433;48.730;9.108;2023-04-25T12:32:28;9.80;;;5.70;;
6791;SDS011;3433;48.730;9.108;2023-04-25T12:34:56;8.20;;;5.60;;
6791;SDS011;3433;48.730;9.108;2023-04-25T12:37:22;8.90;;;6.27;;
6791;SDS011;3433;48.730;9.108;2023-04-25T12:39:49;9.10;;;6.43;;
6791;SDS011;3433;48.730;9.108;2023-04-25T12:42:18;9.00;;;5.27;;
6791;SDS011;3433;48.730;9.108;2023-04-25T12:44:45;10.00;;;5.53;;
6791;SDS011;3433;48.730;9.108;2023-04-25T12:47:12;8.43;;;5.47;;
6791;SDS011;3433;48.730;9.108;2023-04-25T12:49:39;9.10;;;7.70;;
6791;SDS011;3433;48.730;9.108;2023-04-25T12:52:06;6.90;;;5.63;;
6791;SDS011;3433;48.730;9.108;2023-04-25T12:54:33;7.93;;;6.00;;
6791;SDS011;3433;48.730;9.108;2023-04-25T12:57:00;8.80;;;4.93;;
6791;SDS011;3433;48.730;9.108;2023-04-25T12:59:29;9.97;;;5.90;;
6791;SDS011;3433;48.730;9.108;2023-04-25T13:01:56;9.20;;;6.17;;
6791;SDS011;3433;48.730;9.108;2023-04-25T13:04:23;9.77;;;5.87;;
6791;SDS011;3433;48.730;9.108;2023-04-25T13:06:50;8.10;;;5.37;;
6791;SDS011;3433;48.730;9.108;2023-04-25T13:09:16;8.10;;;6.17;;
6791;SDS011;3433;48.730;9.108;2023-04-25T13:11:43;8.60;;;5.30;;
6791;SDS011;3433;48.730;9.108;2023-04-25T13:14:11;6.93;;;5.80;;
6791;SDS011;3433;48.730;9.108;2023-04-25T13:16:39;6.50;;;5.33;;
6791;SDS011;3433;48.730;9.108;2023-04-25T13:19:06;9.07;;;6.10;;
6791;SDS011;3433;48.730;9.108;2023-04-25T13:21:36;10.10;;;5.80;;
6791;SDS011;3433;48.730;9.108;2023-04-25T13:24:03;8.23;;;5.50;;
6791;SDS011;3433;48.730;9.108;2023-04-25T13:26:30;8.43;;;5.57;;
6791;SDS011;3433;48.730;9.108;2023-04-25T13:28:57;7.80;;;6.07;;
6791;SDS011;3433;48.730;9.108;2023-04-25T13:31:25;15.53;;;6.60;;
6791;SDS011;3433;48.730;9.108;2023-04-25T13:33:53;10.27;;;6.43;;
6791;SDS011;3433;48.730;9.108;2023-04-25T13:36:20;9.10;;;6.80;;
6791;SDS011;3433;48.730;9.108;2023-04-25T13:38:47;10.80;;;7.50;;
6791;SDS011;3433;48.730;9.108;2023-04-25T13:41:14;13.00;;;7.73;;
6791;SDS011;3433;48.730;9.108;2023-04-25T13:43:43;9.73;;;6.90;;
6791;SDS011;3433;48.730;9.108;2023-04-25T13:46:12;14.97;;;9.00;;
6791;SDS011;3433;48.730;9.108;2023-04-25T13:48:40;17.07;;;10.30;;
6791;SDS011;3433;48.730;9.108;2023-04-25T13:51:13;13.40;;;9.80;;
6791;SDS011;3433;48.730;9.108;2023-04-25T13:53:41;15.00;;;9.03;;
6791;SDS011;3433;48.730;9.108;2023-04-25T13:56:08;13.10;;;9.03;;
6791;SDS011;3433;48.730;9.108;2023-04-25T13:58:36;9.60;;;7.90;;
6791;SDS011;3433;48.730;9.108;2023-04-25T14:01:03;9.93;;;8.27;;
6791;SDS011;3433;48.730;9.108;2023-04-25T14:03:30;9.70;;;7.90;;
6791;SDS011;3433;48.730;9.108;2023-04-25T14:05:57;15.43;;;8.50;;
6791;SDS011;3433;48.730;9.108;2023-04-25T14:08:25;11.50;;;7.90;;
6791;SDS011;3433;48.730;9.108;2023-04-25T14:10:53;9.17;;;7.70;;
6791;SDS011;3433;48.730;9.108;2023-04-25T14:13:20;10.83;;;8.10;;
6791;SDS011;3433;48.730;9.108;2023-04-25T14:15:48;9.13;;;7.80;;
6791;SDS011;3433;48.730;9.108;2023-04-25T14:18:16;11.70;;;8.60;;
6791;SDS011;3433;48.730;9.108;2023-04-25T14:20:43;14.00;;;9.20;;
6791;SDS011;3433;48.730;9.108;2023-04-25T14:23:10;12.33;;;7.90;;
6791;SDS011;3433;48.730;9.108;2023-04-25T14:25:38;12.00;;;8.00;;
6791;SDS011;3433;48.730;9.108;2023-04-25T14:28:06;10.30;;;7.53;;
6791;SDS011;3433;48.730;9.108;2023-04-25T14:30:33;8.50;;;6.83;;
6791;SDS011;3433;48.730;9.108;2023-04-25T14:33:00;7.43;;;6.27;;
6791;SDS011;3433;48.730;9.108;2023-04-25T14:35:27;6.77;;;6.00;;
6791;SDS011;3433;48.730;9.108;2023-04-25T14:37:54;8.30;;;5.73;;
6791;SDS011;3433;48.730;9.108;2023-04-25T14:40:21;6.30;;;4.50;;
6791;SDS011;3433;48.730;9.108;2023-04-25T14:42:50;8.63;;;6.30;;
6791;SDS011;3433;48.730;9.108;2023-04-25T14:45:17;6.60;;;4.60;;
6791;SDS011;3433;48.730;9.108;2023-04-25T14:47:44;7.93;;;5.80;;
6791;SDS011;3433;48.730;9.108;2023-04-25T14:50:11;7.97;;;6.60;;
6791;SDS011;3433;48.730;9.108;2023-04-25T14:52:39;10.90;;;5.77;;
6791;SDS011;3433;48.730;9.108;2023-04-25T14:55:06;6.20;;;5.07;;
6791;SDS011;3433;48.730;9.108;2023-04-25T14:57:33;5.27;;;4.50;;
6791;SDS011;3433;48.730;9.108;2023-04-25T15:00:02;5.43;;;4.90;;
6791;SDS011;3433;48.730;9.108;2023-04-25T15:02:34;5.50;;;4.90;;
6791;SDS011;3433;48.730;9.108;2023-04-25T15:05:01;5.60;;;4.13;;
6791;SDS011;3433;48.730;9.108;2023-04-25T15:07:28;6.20;;;4.77;;
6791;SDS011;3433;48.730;9.108;2023-04-25T15:09:58;5.70;;;5.00;;
6791;SDS011;3433;48.730;9.108;2023-04-25T15:12:24;7.50;;;5.43;;
6791;SDS011;3433;48.730;9.108;2023-04-25T15:14:56;5.37;;;4.87;;
6791;SDS011;3433;48.730;9.108;2023-04-25T15:17:24;5.20;;;4.70;;
6791;SDS011;3433;48.730;9.108;2023-04-25T15:19:51;5.50;;;4.00;;
6791;SDS011;3433;48.730;9.108;2023-04-25T15:22:19;5.40;;;4.90;;
6791;SDS011;3433;48.730;9.108;2023-04-25T15:24:46;8.77;;;5.90;;